createdAt,value
2023-01-27T00:01:40.177Z,97.53
2023-01-27T00:06:40.898Z,97.22
2023-01-27T00:11:41.653Z,97.47
2023-01-27T00:16:42.360Z,97.89
2023-01-27T00:21:43.175Z,97.99
2023-01-27T00:26:43.899Z,98.10
2023-01-27T00:31:44.707Z,98.10
2023-01-27T00:36:45.418Z,98.21
2023-01-27T00:41:46.171Z,97.99
2023-01-27T00:46:46.992Z,97.99
2023-01-27T00:51:47.764Z,98.21
2023-01-27T00:56:48.457Z,98.52
2023-01-27T01:01:49.263Z,99.35
2023-01-27T01:06:49.979Z,99.46
2023-01-27T01:11:50.727Z,99.77
2023-01-27T01:16:51.436Z,99.77
2023-01-27T01:21:52.170Z,99.77
2023-01-27T01:26:52.905Z,99.66
2023-01-27T01:31:53.660Z,99.98
2023-01-27T01:36:54.380Z,99.46
2023-01-27T01:41:55.114Z,98.93
2023-01-27T01:46:55.918Z,99.25
2023-01-27T01:51:56.662Z,99.15
2023-01-27T01:56:57.364Z,98.93
2023-01-27T02:01:58.155Z,98.41
2023-01-27T02:06:59.033Z,98.93
2023-01-27T02:11:59.754Z,98.83
2023-01-27T02:17:00.497Z,98.52
2023-01-27T02:22:01.236Z,98.58
2023-01-27T02:27:01.950Z,98.26
2023-01-27T02:32:02.686Z,97.85
2023-01-27T02:37:03.434Z,97.38
2023-01-27T02:42:04.149Z,96.34
2023-01-27T02:47:04.868Z,96.55
2023-01-27T02:52:05.620Z,96.59
2023-01-27T02:57:06.330Z,97.22
2023-01-27T03:02:07.153Z,97.64
2023-01-27T03:07:07.871Z,97.85
2023-01-27T03:12:08.594Z,97.32
2023-01-27T03:17:16.337Z,97.01
2023-01-27T03:22:10.075Z,96.91
2023-01-27T03:27:10.786Z,96.66
2023-01-27T03:32:11.534Z,95.82
2023-01-27T03:37:12.274Z,95.82
2023-01-27T03:42:13.176Z,96.03
2023-01-27T03:47:13.912Z,96.03
2023-01-27T03:52:14.674Z,96.13
2023-01-27T03:57:15.382Z,96.55
2023-01-27T04:02:16.211Z,96.66
2023-01-27T04:07:16.922Z,97.17
2023-01-27T04:12:17.709Z,98.01
2023-01-27T04:17:18.470Z,98.43
2023-01-27T04:22:19.293Z,98.74
2023-01-27T04:27:20.043Z,98.85
2023-01-27T04:32:20.776Z,98.95
2023-01-27T04:43:10.179Z,98.43
2023-01-27T04:48:10.912Z,98.63
2023-01-27T04:53:11.620Z,98.32
2023-01-27T04:58:12.335Z,98.22
2023-01-27T05:03:13.121Z,98.11
2023-01-27T05:08:13.890Z,98.28
2023-01-27T05:13:14.598Z,98.18
2023-01-27T05:18:15.307Z,97.55
2023-01-27T05:23:16.191Z,97.65
2023-01-27T05:28:16.880Z,97.55
2023-01-27T05:33:17.759Z,97.97
2023-01-27T05:38:18.483Z,98.38
2023-01-27T05:43:19.204Z,98.69
2023-01-27T05:48:20.001Z,99.01
2023-01-27T05:53:20.707Z,99.53
2023-01-27T05:58:21.398Z,99.63
2023-01-27T06:03:22.133Z,99.43
2023-01-27T06:08:22.877Z,99.99
2023-01-27T06:13:23.567Z,99.99
2023-01-27T06:18:24.261Z,99.99
2023-01-27T06:23:24.930Z,99.99
2023-01-27T06:28:29.910Z,99.99
2023-01-27T06:33:26.239Z,99.99
2023-01-27T06:38:26.943Z,99.99
2023-01-27T06:43:27.582Z,99.99
2023-01-27T06:48:28.240Z,99.99
2023-01-27T06:53:28.937Z,99.99
2023-01-27T06:58:29.784Z,99.99
2023-01-27T07:03:30.383Z,99.99
2023-01-27T07:08:31.048Z,99.99
2023-01-27T07:13:31.681Z,99.99
2023-01-27T07:18:32.359Z,99.99
2023-01-27T07:23:33.063Z,99.99
2023-01-27T07:28:33.724Z,99.99
2023-01-27T07:33:34.375Z,99.99
2023-01-27T07:38:35.043Z,99.99
2023-01-27T07:43:35.695Z,99.99
2023-01-27T07:48:36.368Z,99.99
2023-01-27T07:53:36.995Z,99.99
2023-01-27T07:58:37.666Z,99.99
2023-01-27T08:03:38.340Z,99.99
2023-01-27T08:08:38.984Z,99.99
2023-01-27T08:13:39.634Z,99.99
2023-01-27T08:18:40.325Z,99.99
2023-01-27T08:23:40.972Z,99.99
2023-01-27T08:28:41.616Z,99.99
2023-01-27T08:33:42.299Z,99.99
2023-01-27T08:38:42.952Z,99.99
2023-01-27T08:43:43.632Z,99.99
2023-01-27T08:48:44.285Z,99.99
2023-01-27T08:53:44.977Z,99.99
2023-01-27T08:58:45.624Z,99.99
2023-01-27T09:03:46.252Z,99.99
2023-01-27T09:08:46.945Z,99.99
2023-01-27T09:13:47.589Z,99.99
2023-01-27T09:18:55.235Z,99.99
2023-01-27T09:23:48.873Z,99.99
2023-01-27T09:28:49.567Z,99.99
2023-01-27T09:33:50.184Z,99.99
2023-01-27T09:38:50.865Z,99.99
2023-01-27T09:43:51.530Z,99.99
2023-01-27T09:48:52.151Z,99.99
2023-01-27T09:53:52.803Z,99.99
2023-01-27T09:58:53.502Z,99.99
2023-01-27T10:03:54.114Z,99.99
2023-01-27T10:08:54.757Z,99.99
2023-01-27T10:13:55.429Z,99.99
2023-01-27T10:18:56.092Z,99.99
2023-01-27T10:23:56.770Z,99.74
2023-01-27T10:28:57.394Z,99.85
2023-01-27T10:33:58.064Z,99.43
2023-01-27T10:38:58.698Z,98.91
2023-01-27T10:43:59.415Z,98.81
2023-01-27T10:49:00.079Z,98.60
2023-01-27T10:54:01.767Z,98.55
2023-01-27T10:59:02.829Z,99.18
2023-01-27T11:04:02.143Z,98.35
2023-01-27T11:09:02.759Z,98.41
2023-01-27T11:14:03.436Z,96.95
2023-01-27T11:19:04.085Z,97.58
2023-01-27T11:24:04.824Z,97.68
2023-01-27T11:29:05.464Z,97.62
2023-01-27T11:34:06.135Z,97.06
2023-01-27T11:39:06.826Z,97.27
2023-01-27T11:44:07.450Z,97.47
2023-01-27T11:49:08.100Z,97.47
2023-01-27T11:54:08.774Z,97.58
2023-01-27T11:59:09.406Z,98.72
2023-01-27T12:04:10.064Z,98.55
2023-01-27T12:09:10.707Z,98.86
2023-01-27T12:14:11.387Z,98.35
2023-01-27T12:19:12.029Z,98.35
2023-01-27T12:24:12.690Z,97.93
2023-01-27T12:29:13.343Z,97.31
2023-01-27T12:34:14.014Z,96.79
2023-01-27T12:39:14.657Z,96.37
2023-01-27T12:44:15.314Z,96.17
2023-01-27T12:49:15.982Z,95.03
2023-01-27T12:54:16.656Z,95.17
2023-01-27T12:59:17.428Z,95.69
2023-01-27T13:04:18.066Z,96.00
2023-01-27T13:09:18.725Z,96.73
2023-01-27T13:14:19.397Z,96.83
2023-01-27T13:19:20.047Z,97.04
2023-01-27T13:24:20.725Z,97.04
2023-01-27T13:29:21.383Z,96.31
2023-01-27T13:34:22.017Z,96.00
2023-01-27T13:39:22.657Z,95.38
2023-01-27T13:44:23.305Z,94.13
2023-01-27T13:49:23.980Z,92.88
2023-01-27T13:54:24.625Z,92.57
2023-01-27T13:59:25.294Z,91.74
2023-01-27T14:04:26.018Z,91.53
2023-01-27T14:09:26.657Z,91.70
2023-01-27T14:14:27.323Z,91.60
2023-01-27T14:19:28.001Z,90.20
2023-01-27T14:24:28.759Z,88.79
2023-01-27T14:29:29.371Z,89.69
2023-01-27T14:34:30.074Z,88.59
2023-01-27T14:39:30.718Z,89.11
2023-01-27T14:44:43.638Z,89.62
2023-01-27T14:49:32.909Z,90.00
2023-01-27T14:54:32.581Z,89.27
2023-01-27T14:59:33.228Z,88.79
2023-01-27T15:04:33.870Z,89.62
2023-01-27T15:09:34.518Z,89.11
2023-01-27T15:14:35.190Z,89.52
2023-01-27T15:19:35.822Z,89.42
2023-01-27T15:24:36.478Z,88.59
2023-01-27T15:29:37.154Z,88.90
2023-01-27T15:34:37.822Z,88.69
2023-01-27T15:39:42.534Z,88.69
2023-01-27T15:44:40.045Z,87.96
2023-01-27T15:49:39.681Z,88.28
2023-01-27T15:54:40.342Z,87.65
2023-01-27T15:59:44.236Z,87.34
2023-01-27T16:04:42.550Z,86.82
2023-01-27T16:09:42.169Z,87.13
2023-01-27T16:14:42.817Z,86.51
2023-01-27T16:19:43.552Z,86.03
2023-01-27T16:24:44.294Z,85.72
2023-01-27T16:29:44.967Z,85.72
2023-01-27T16:34:45.679Z,85.51
2023-01-27T16:39:46.405Z,85.51
2023-01-27T16:44:47.145Z,85.72
2023-01-27T16:49:48.171Z,85.61
2023-01-27T16:54:48.332Z,84.53
2023-01-27T16:59:49.074Z,83.64
2023-01-27T17:04:49.837Z,83.22
2023-01-27T17:09:50.510Z,83.33
2023-01-27T17:14:51.225Z,81.87
2023-01-27T17:19:51.984Z,81.46
2023-01-27T17:24:52.713Z,80.42
2023-01-27T17:29:53.507Z,80.00
2023-01-27T17:34:54.235Z,80.42
2023-01-27T17:40:01.987Z,80.98
2023-01-27T17:44:55.657Z,81.60
2023-01-27T17:49:56.405Z,82.32
2023-01-27T17:54:57.107Z,82.84
2023-01-27T17:59:57.869Z,83.26
2023-01-27T18:04:58.604Z,83.20
2023-01-27T18:09:59.339Z,83.86
2023-01-27T18:15:00.093Z,84.52
2023-01-27T18:20:00.816Z,84.63
2023-01-27T18:25:01.590Z,84.94
2023-01-27T18:30:02.301Z,84.52
2023-01-27T18:35:03.029Z,84.31
2023-01-27T18:40:03.744Z,85.04
2023-01-27T18:45:04.480Z,85.04
2023-01-27T18:50:05.191Z,84.45
2023-01-27T18:55:05.897Z,85.29
2023-01-27T19:00:06.635Z,85.50
2023-01-27T19:05:07.360Z,85.29
2023-01-27T19:10:08.076Z,85.19
2023-01-27T19:15:08.807Z,85.64
2023-01-27T19:20:09.554Z,85.96
2023-01-27T19:25:10.257Z,85.43
2023-01-27T19:30:10.986Z,85.02
2023-01-27T19:35:12.418Z,85.22
2023-01-27T19:40:12.343Z,85.12
2023-01-27T19:45:13.416Z,84.91
2023-01-27T19:50:13.755Z,84.18
2023-01-27T19:55:14.916Z,84.91
2023-01-27T20:00:15.233Z,84.01
2023-01-27T20:05:16.332Z,84.01
2023-01-27T20:10:16.604Z,84.53
2023-01-27T20:15:17.588Z,83.84
2023-01-27T20:20:18.319Z,84.05
2023-01-27T20:25:19.026Z,84.26
2023-01-27T20:30:19.836Z,84.78
2023-01-27T20:35:20.555Z,84.26
2023-01-27T20:40:21.255Z,84.36
2023-01-27T20:45:21.982Z,84.05
2023-01-27T20:50:25.680Z,84.61
2023-01-27T20:55:23.380Z,85.44
2023-01-27T21:00:24.199Z,84.40
2023-01-27T21:05:24.910Z,84.72
2023-01-27T21:10:25.927Z,84.50
2023-01-27T21:15:26.178Z,84.82
2023-01-27T21:20:26.937Z,84.55
2023-01-27T21:25:27.668Z,84.96
2023-01-27T21:30:28.665Z,85.38
2023-01-27T21:35:29.070Z,84.86
2023-01-27T21:40:29.750Z,84.96
2023-01-27T21:45:30.476Z,84.34
2023-01-27T21:50:31.221Z,84.23
2023-01-27T21:55:32.001Z,84.44
2023-01-27T22:00:32.779Z,84.96
2023-01-27T22:05:33.515Z,84.58
2023-01-27T22:10:34.193Z,84.48
2023-01-27T22:15:35.009Z,85.21
2023-01-27T22:20:35.773Z,85.73
2023-01-27T22:25:36.497Z,85.00
2023-01-27T22:30:37.256Z,85.00
2023-01-27T22:35:37.938Z,85.00
2023-01-27T22:40:38.697Z,84.89
2023-01-27T22:45:39.461Z,85.04
2023-01-27T22:50:40.136Z,85.46
2023-01-27T22:55:40.859Z,85.91
2023-01-27T23:00:41.598Z,86.44
2023-01-27T23:05:42.295Z,86.47
2023-01-27T23:10:43.022Z,86.79
2023-01-27T23:15:43.763Z,87.00
2023-01-27T23:20:44.475Z,87.35
2023-01-27T23:25:45.216Z,87.35
2023-01-27T23:30:46.063Z,87.56
2023-01-27T23:35:46.818Z,87.35
2023-01-27T23:40:54.544Z,87.56
2023-01-27T23:45:48.199Z,87.77
2023-01-27T23:50:48.916Z,88.23
2023-01-27T23:55:49.645Z,88.75
